Columbus/Rickenbacker ANGB, Ohio
Current Conditions -  °F | °C
As of 3:55 AM on Wednesday 22 Oct 2014 (Local Time) from KLCK Reporting Station
Overcast Overcast  
Wind Chill: 38°   Ceiling: 800
Heat Index: 44°   Visibility: 10mi
Dew Point: 41°   Wind: 10mph
Humidity: 90%   Direction: 330°NNW
Pressure: 30.15"   Gusts: NA
Location:  39.82°N, 82.93°W
Report Text: KLCK 220755Z AUTO 33009KT 10SM OVC008 07/05 A3015 RMK AO2 T00650050
Loading
Personal Weather Stations






























Interactive Weather Map
Tropical Storm Tracking
New forecast layout! Learn more

10-Day Weather Forecast

Advertisements
Track Severe Weather on mobile